Time;durP1;ratioP1;P1;durP2;ratioP2;P2;SDS_P1;SDS_P2;PMS_P1;PMS_P2;Temp;Humidity;BMP_temperature;BMP_pressure;BME280_temperature;BME280_humidity;BME280_pressure;Samples;Min_cycle;Max_cycle;Signal;HPM_P1;HPM_P2
2022/11/01 00:00:13;;;;;;;11.77;5.97;;;;;;;13.89;100.00;100669.00;5245452;28;20040;-65
2022/11/01 00:02:44;;;;;;;11.20;5.43;;;;;;;13.92;100.00;100660.69;5247215;28;20086;-65
2022/11/01 00:05:16;;;;;;;9.23;5.43;;;;;;;13.93;100.00;100651.63;5242400;28;20562;-65
2022/11/01 00:07:47;;;;;;;14.82;6.28;;;;;;;13.98;100.00;100664.63;5246030;28;20439;-65
2022/11/01 00:10:18;;;;;;;10.43;5.43;;;;;;;14.04;100.00;100663.19;5251680;28;20033;-65
2022/11/01 00:12:49;;;;;;;12.02;5.78;;;;;;;14.09;100.00;100655.53;5253604;28;20028;-65
2022/11/01 00:15:21;;;;;;;13.30;5.93;;;;;;;14.14;100.00;100657.81;5244571;28;20037;-65
2022/11/01 00:17:52;;;;;;;12.70;5.85;;;;;;;14.17;100.00;100653.00;5253059;28;20025;-65
2022/11/01 00:20:23;;;;;;;10.48;5.57;;;;;;;14.21;100.00;100646.34;5242734;28;20036;-65
2022/11/01 00:22:54;;;;;;;12.45;5.35;;;;;;;14.31;100.00;100649.84;5249417;28;20059;-65
2022/11/01 00:25:26;;;;;;;8.43;5.22;;;;;;;14.31;100.00;100646.31;5251302;28;20672;-66
2022/11/01 00:27:57;;;;;;;9.93;5.30;;;;;;;14.39;100.00;100650.94;5253067;28;20491;-65
2022/11/01 00:30:28;;;;;;;15.77;5.80;;;;;;;14.44;100.00;100648.66;5250227;28;20037;-65
2022/11/01 00:33:00;;;;;;;10.48;5.00;;;;;;;14.51;100.00;100647.06;5250320;28;20068;-65
2022/11/01 00:35:32;;;;;;;8.93;4.70;;;;;;;14.50;100.00;100651.59;5250187;28;20029;-66
2022/11/01 00:38:04;;;;;;;8.85;4.60;;;;;;;14.54;100.00;100649.47;5252216;28;20025;-65
2022/11/01 00:40:36;;;;;;;12.13;5.25;;;;;;;14.61;100.00;100645.25;5250226;28;20340;-66
2022/11/01 00:43:07;;;;;;;10.07;4.63;;;;;;;14.62;100.00;100646.91;5250401;28;20025;-66
2022/11/01 00:45:38;;;;;;;14.68;5.20;;;;;;;14.61;100.00;100641.69;5247403;28;20135;-65
2022/11/01 00:48:13;;;;;;;8.82;4.63;;;;;;;14.62;100.00;100646.91;5249051;28;21561;-66
2022/11/01 00:50:44;;;;;;;8.15;4.82;;;;;;;14.69;100.00;100639.97;5244334;28;20433;-65
2022/11/01 00:53:16;;;;;;;11.80;5.00;;;;;;;14.68;100.00;100649.00;5252293;28;20033;-66
2022/11/01 00:55:47;;;;;;;13.60;5.07;;;;;;;14.67;100.00;100639.28;5250756;28;20033;-65
2022/11/01 00:58:18;;;;;;;10.18;4.93;;;;;;;14.70;100.00;100632.75;5250341;28;20036;-65
2022/11/01 01:00:50;;;;;;;9.63;4.90;;;;;;;14.63;100.00;100637.88;5248942;28;20098;-66
2022/11/01 01:03:21;;;;;;;9.93;4.60;;;;;;;14.69;100.00;100626.53;5245294;28;20115;-66
2022/11/01 01:05:53;;;;;;;10.65;4.40;;;;;;;14.74;100.00;100627.94;5247157;28;20029;-65
2022/11/01 01:08:25;;;;;;;13.18;4.90;;;;;;;14.71;100.00;100626.41;5252850;28;20017;-65
2022/11/01 01:10:56;;;;;;;9.05;4.68;;;;;;;14.77;100.00;100635.69;5250544;28;20028;-66
2022/11/01 01:13:27;;;;;;;8.77;4.90;;;;;;;14.74;100.00;100614.50;5254091;28;20028;-65
2022/11/01 01:15:58;;;;;;;7.47;4.60;;;;;;;14.76;100.00;100618.72;5251804;28;20577;-65
2022/11/01 01:18:30;;;;;;;10.18;5.18;;;;;;;14.79;100.00;100622.97;5248691;28;20445;-65
2022/11/01 01:21:03;;;;;;;10.48;4.78;;;;;;;14.84;100.00;100626.00;5249396;28;20040;-65
2022/11/01 01:23:35;;;;;;;10.73;5.40;;;;;;;14.90;100.00;100628.13;5249507;28;20044;-65
2022/11/01 01:26:08;;;;;;;10.30;4.70;;;;;;;14.86;100.00;100630.25;5250792;28;20076;-66
2022/11/01 01:28:39;;;;;;;10.53;5.20;;;;;;;14.94;100.00;100628.63;5248879;28;20032;-65
2022/11/01 01:31:11;;;;;;;10.95;5.28;;;;;;;14.92;100.00;100630.63;5239622;28;20031;-65
2022/11/01 01:33:43;;;;;;;10.35;4.90;;;;;;;14.95;100.00;100633.88;5233884;28;20033;-65
2022/11/01 01:36:14;;;;;;;8.35;4.53;;;;;;;14.93;100.00;100619.75;5234552;28;20036;-66
2022/11/01 01:38:45;;;;;;;9.13;5.25;;;;;;;14.98;100.00;100628.22;5248766;28;20021;-65
2022/11/01 01:44:44;;;;;;;11.50;5.07;;;;;;;15.09;100.00;100629.81;5250288;28;20064;-66
2022/11/01 01:47:23;;;;;;;8.23;4.57;;;;;;;15.00;100.00;100623.53;5249742;28;20024;-65
2022/11/01 01:50:00;;;;;;;11.30;4.97;;;;;;;14.96;100.00;100618.59;5250439;28;20048;-66
2022/11/01 01:52:35;;;;;;;11.52;5.20;;;;;;;15.01;100.00;100614.44;5249434;28;20418;-66
2022/11/01 01:55:09;;;;;;;9.75;5.07;;;;;;;15.14;100.00;100611.41;5246952;28;20063;-65
2022/11/01 01:57:41;;;;;;;9.93;4.45;;;;;;;15.10;100.00;100618.91;5242613;28;20036;-65
2022/11/01 02:00:13;;;;;;;10.05;4.78;;;;;;;15.13;100.00;100614.22;5241262;28;20045;-66
2022/11/01 02:02:44;;;;;;;12.05;5.70;;;;;;;15.15;100.00;100621.16;5237991;28;20043;-66
2022/11/01 02:05:23;;;;;;;9.15;4.55;;;;;;;15.19;100.00;100617.16;5241858;28;20079;-67
2022/11/01 02:07:56;;;;;;;8.57;4.75;;;;;;;15.19;100.00;100616.34;5253178;28;20033;-66
2022/11/01 02:10:29;;;;;;;12.45;5.32;;;;;;;15.22;100.00;100621.38;5240662;28;20893;-66
2022/11/01 02:13:00;;;;;;;11.93;4.70;;;;;;;15.23;100.00;100623.94;5236239;28;20039;-66
2022/11/01 02:15:42;;;;;;;10.70;4.80;;;;;;;15.25;100.00;100621.09;5237707;28;20037;-65
2022/11/01 02:18:33;;;;;;;10.07;4.53;;;;;;;15.23;100.00;100626.59;5237515;28;20033;-66
2022/11/01 02:21:34;;;;;;;9.15;4.53;;;;;;;15.27;100.00;100625.31;5239460;28;20067;-66
2022/11/01 02:24:43;;;;;;;11.48;4.80;;;;;;;15.26;100.00;100623.63;5246057;28;20502;-66
2022/11/01 02:27:32;;;;;;;11.60;4.78;;;;;;;15.29;100.00;100619.78;5225745;28;20049;-66
2022/11/01 02:30:18;;;;;;;8.27;4.18;;;;;;;15.33;100.00;100621.16;5251096;28;21747;-66
2022/11/01 02:33:04;;;;;;;9.45;4.63;;;;;;;15.25;100.00;100632.69;5249800;28;20051;-65
2022/11/01 02:35:50;;;;;;;12.10;4.15;;;;;;;15.31;100.00;100628.53;5245109;28;20029;-66
2022/11/01 02:38:25;;;;;;;9.00;4.53;;;;;;;15.33;100.00;100633.75;5248032;28;20048;-66
2022/11/01 02:41:21;;;;;;;7.68;3.97;;;;;;;15.27;100.00;100625.31;5247738;28;20517;-66
2022/11/01 02:44:01;;;;;;;10.32;4.40;;;;;;;15.28;100.00;100634.19;5239454;28;20060;-65
2022/11/01 02:49:32;;;;;;;8.48;4.28;;;;;;;15.19;100.00;100638.66;5235523;28;20053;-66
2022/11/01 02:52:07;;;;;;;9.23;4.22;;;;;;;15.16;100.00;100654.25;5231204;28;20059;-66
2022/11/01 02:54:42;;;;;;;9.45;4.28;;;;;;;15.13;100.00;100643.78;5238098;28;20033;-66
2022/11/01 02:57:16;;;;;;;10.55;4.20;;;;;;;15.20;100.00;100650.25;5235055;28;20561;-66
2022/11/01 02:59:47;;;;;;;9.23;4.20;;;;;;;15.07;100.00;100647.94;5237512;28;20095;-66
2022/11/01 03:02:39;;;;;;;9.82;4.35;;;;;;;15.12;100.00;100653.72;5240363;28;20124;-66
2022/11/01 03:05:33;;;;;;;10.90;4.47;;;;;;;15.11;100.00;100665.47;5236138;28;21243;-66
2022/11/01 03:08:08;;;;;;;8.57;4.45;;;;;;;15.02;100.00;100658.31;5194693;28;20056;-65
2022/11/01 03:10:51;;;;;;;9.40;4.20;;;;;;;14.97;100.00;100665.97;5238292;28;20032;-66
2022/11/01 03:13:33;;;;;;;8.05;4.70;;;;;;;15.01;100.00;100670.88;5240893;28;20404;-66
2022/11/01 03:16:17;;;;;;;10.77;4.15;;;;;;;14.89;100.00;100670.25;5237605;28;20032;-66
2022/11/01 03:19:02;;;;;;;9.02;4.50;;;;;;;14.92;100.00;100673.63;5237315;28;20051;-66
2022/11/01 03:21:40;;;;;;;9.95;4.05;;;;;;;14.97;100.00;100690.97;5233053;28;20445;-65
2022/11/01 03:24:28;;;;;;;7.60;3.72;;;;;;;14.94;100.00;100688.63;5237828;28;20025;-66
2022/11/01 03:27:10;;;;;;;12.45;4.03;;;;;;;14.95;100.00;100694.81;5237359;28;20029;-65
2022/11/01 03:29:47;;;;;;;7.25;3.70;;;;;;;14.89;100.00;100698.94;5236289;28;20031;-66
2022/11/01 03:32:19;;;;;;;6.93;2.90;;;;;;;14.89;100.00;100702.47;5236268;28;20099;-66
2022/11/01 03:34:50;;;;;;;6.47;2.60;;;;;;;14.90;100.00;100706.03;5238987;28;20037;-66
2022/11/01 03:37:23;;;;;;;5.20;2.50;;;;;;;14.90;100.00;100714.09;5239247;28;20158;-66
2022/11/01 03:40:01;;;;;;;8.25;2.38;;;;;;;14.87;100.00;100723.28;5238005;28;20033;-66
2022/11/01 03:42:33;;;;;;;5.55;2.40;;;;;;;14.79;100.00;100723.16;5242338;28;20375;-66
2022/11/01 03:45:10;;;;;;;5.28;1.63;;;;;;;14.82;100.00;100722.88;5247622;28;20029;-66
2022/11/01 03:47:42;;;;;;;3.28;1.27;;;;;;;14.82;100.00;100730.06;5247027;28;20057;-66
2022/11/01 03:50:19;;;;;;;4.32;1.33;;;;;;;14.82;100.00;100732.75;5241776;28;20682;-66
2022/11/01 03:52:51;;;;;;;4.63;1.13;;;;;;;14.76;100.00;100741.41;5246463;28;20460;-66
2022/11/01 03:55:23;;;;;;;5.53;0.93;;;;;;;14.76;100.00;100753.00;5248111;28;20082;-66
2022/11/01 03:57:57;;;;;;;5.60;1.17;;;;;;;14.69;100.00;100755.44;5248728;28;20033;-66
2022/11/01 04:00:31;;;;;;;4.83;1.10;;;;;;;14.62;100.00;100756.16;5244698;28;20033;-66
2022/11/01 04:03:02;;;;;;;3.90;1.10;;;;;;;14.56;100.00;100768.31;5244925;28;20041;-67
2022/11/01 04:05:36;;;;;;;3.92;0.80;;;;;;;14.48;99.99;100784.31;5248380;28;20029;-65
2022/11/01 04:08:10;;;;;;;4.38;0.80;;;;;;;14.45;96.89;100792.63;5254169;28;20028;-66
2022/11/01 04:10:43;;;;;;;3.20;0.75;;;;;;;14.41;96.67;100784.00;5248153;28;20551;-66
2022/11/01 04:13:14;;;;;;;3.63;0.70;;;;;;;14.40;94.15;100793.06;5251202;28;20048;-66
2022/11/01 04:21:27;;;;;;;2.83;0.90;;;;;;;14.19;96.95;100817.38;5240515;28;20167;-66
2022/11/01 04:23:58;;;;;;;3.30;0.68;;;;;;;14.12;98.21;100821.63;5238969;28;20021;-66
2022/11/01 04:26:29;;;;;;;3.83;0.80;;;;;;;14.07;99.04;100823.88;5239411;28;20470;-66
2022/11/01 04:29:01;;;;;;;3.80;0.68;;;;;;;13.97;98.91;100828.38;5238468;28;20025;-66
2022/11/01 04:31:35;;;;;;;2.53;0.68;;;;;;;13.88;99.24;100836.28;5238279;28;20463;-65
2022/11/01 04:34:06;;;;;;;3.10;0.70;;;;;;;13.85;99.42;100841.09;5235932;28;20087;-66
2022/11/01 04:36:37;;;;;;;3.75;0.60;;;;;;;13.80;97.54;100852.22;5238246;28;20128;-66
2022/11/01 04:39:09;;;;;;;4.40;0.70;;;;;;;13.73;97.74;100859.97;5237535;28;20033;-66
2022/11/01 04:41:40;;;;;;;4.15;0.80;;;;;;;13.69;97.92;100863.03;5239262;28;20075;-65
2022/11/01 04:44:11;;;;;;;3.53;0.70;;;;;;;13.65;97.14;100862.50;5239538;28;20025;-66
2022/11/01 04:46:42;;;;;;;4.70;0.80;;;;;;;13.62;97.69;100872.66;5240853;28;20162;-66
2022/11/01 04:49:14;;;;;;;4.80;0.70;;;;;;;13.60;97.41;100879.97;5236481;28;20029;-66
2022/11/01 04:51:45;;;;;;;3.63;0.70;;;;;;;13.55;98.42;100882.22;5239866;28;20131;-66
2022/11/01 04:54:16;;;;;;;2.30;0.73;;;;;;;13.52;97.67;100899.44;5244730;28;20029;-66
2022/11/01 04:56:47;;;;;;;3.45;0.55;;;;;;;13.48;97.54;100896.16;5253374;28;20041;-66
2022/11/01 04:59:19;;;;;;;3.88;0.73;;;;;;;13.41;98.20;100904.88;5248660;28;20028;-67
2022/11/01 05:01:51;;;;;;;5.28;0.80;;;;;;;13.40;96.54;100909.38;5251940;28;20068;-66
2022/11/01 05:04:22;;;;;;;3.92;0.90;;;;;;;13.33;96.92;100932.34;5235375;28;20033;-66
2022/11/01 05:06:53;;;;;;;4.05;1.20;;;;;;;13.36;95.77;100926.69;5252165;28;20605;-66
2022/11/01 05:09:24;;;;;;;4.85;0.80;;;;;;;13.30;96.86;100932.59;5245704;28;20128;-66
2022/11/01 05:11:56;;;;;;;4.43;0.63;;;;;;;13.31;94.91;100928.94;5245569;28;20364;-66
2022/11/01 05:14:27;;;;;;;3.40;0.52;;;;;;;13.25;97.53;100934.78;5249479;28;20074;-66
2022/11/01 05:16:59;;;;;;;4.07;0.60;;;;;;;13.21;97.28;100939.59;5253853;28;20017;-66
2022/11/01 05:19:30;;;;;;;4.60;0.65;;;;;;;13.19;97.65;100940.69;5248257;28;20032;-66
2022/11/01 05:22:02;;;;;;;3.83;0.70;;;;;;;13.11;98.74;100949.38;5250275;28;20040;-66
2022/11/01 05:24:33;;;;;;;5.18;0.70;;;;;;;13.07;98.01;100955.97;5249503;28;20032;-66
2022/11/01 05:27:04;;;;;;;4.07;0.45;;;;;;;13.00;98.32;100963.72;5246062;28;20028;-66
2022/11/01 05:29:36;;;;;;;4.38;0.80;;;;;;;12.98;99.39;100954.91;5250980;28;20090;-66
2022/11/01 05:32:07;;;;;;;5.68;0.70;;;;;;;12.93;98.96;100963.34;5246906;28;20036;-65
2022/11/01 05:34:38;;;;;;;3.72;0.75;;;;;;;12.88;99.68;100964.72;5251921;28;20033;-65
2022/11/01 05:37:10;;;;;;;5.85;0.80;;;;;;;12.85;98.85;100962.31;5253509;28;20090;-66
2022/11/01 05:39:41;;;;;;;4.55;1.00;;;;;;;12.80;99.85;100957.34;5241425;28;20525;-65
2022/11/01 05:42:12;;;;;;;6.35;1.00;;;;;;;12.73;100.00;100966.84;5244246;28;20553;-65
2022/11/01 05:44:43;;;;;;;6.97;0.90;;;;;;;12.74;100.00;100972.09;5250341;28;20045;-66
2022/11/01 05:47:14;;;;;;;4.18;0.80;;;;;;;12.73;100.00;100975.75;5243488;28;20136;-66
2022/11/01 05:49:46;;;;;;;4.20;0.98;;;;;;;12.63;100.00;100963.25;5246344;28;20059;-66
2022/11/01 05:52:17;;;;;;;5.28;0.90;;;;;;;12.61;99.78;100979.44;5253483;28;20272;-66
2022/11/01 05:54:48;;;;;;;5.80;1.13;;;;;;;12.57;98.26;100986.03;5247736;28;20178;-66
2022/11/01 05:57:19;;;;;;;9.48;1.30;;;;;;;12.55;96.69;100990.66;5252161;28;20039;-66
2022/11/01 05:59:51;;;;;;;6.20;1.20;;;;;;;12.53;96.68;100985.44;5248577;28;20490;-66
2022/11/01 06:02:22;;;;;;;7.55;1.27;;;;;;;12.52;95.70;100983.75;5244917;28;20035;-65
2022/11/01 06:04:53;;;;;;;5.07;1.10;;;;;;;12.53;94.04;100982.75;5249686;28;20028;-67
2022/11/01 06:07:25;;;;;;;4.32;1.13;;;;;;;12.50;93.82;100995.53;5253541;28;20573;-66
2022/11/01 06:09:57;;;;;;;5.93;1.10;;;;;;;12.47;95.20;100993.13;5245810;28;20483;-66
2022/11/01 06:12:28;;;;;;;5.45;1.67;;;;;;;12.42;95.03;101006.03;5247793;28;20032;-66
2022/11/01 06:14:59;;;;;;;9.70;1.88;;;;;;;12.37;95.92;101025.16;5244493;28;20111;-66
2022/11/01 06:17:30;;;;;;;5.05;1.15;;;;;;;12.31;96.82;101023.81;5251939;28;20506;-66
2022/11/01 06:20:02;;;;;;;7.32;1.08;;;;;;;12.28;95.99;101026.72;5247703;28;20119;-66
2022/11/01 06:22:35;;;;;;;5.93;1.15;;;;;;;12.25;96.76;101021.59;5246794;28;20129;-66
2022/11/01 06:25:07;;;;;;;5.85;1.00;;;;;;;12.23;97.08;101031.59;5248404;28;20361;-66
2022/11/01 06:27:38;;;;;;;4.72;0.98;;;;;;;12.22;97.30;101029.06;5249299;28;20029;-66
2022/11/01 06:30:10;;;;;;;5.97;1.00;;;;;;;12.19;99.79;101035.50;5247058;28;20032;-66
2022/11/01 06:32:41;;;;;;;7.93;1.27;;;;;;;12.17;98.48;101034.75;5236934;28;20025;-66
2022/11/01 06:35:12;;;;;;;5.03;1.13;;;;;;;12.19;98.14;101043.50;5234955;28;20039;-66
2022/11/01 06:37:44;;;;;;;4.93;1.10;;;;;;;12.14;100.00;101048.41;5231227;28;20138;-66
2022/11/01 06:40:15;;;;;;;6.82;1.05;;;;;;;12.17;99.58;101061.50;5229841;28;20032;-66
2022/11/01 06:42:46;;;;;;;6.72;0.98;;;;;;;12.13;99.87;101058.22;5231070;28;20060;-66
2022/11/01 06:45:18;;;;;;;7.22;1.15;;;;;;;12.10;100.00;101061.16;5236268;28;20032;-66
2022/11/01 06:47:49;;;;;;;6.38;1.30;;;;;;;12.11;99.10;101070.88;5239377;28;20467;-66
2022/11/01 06:50:20;;;;;;;4.57;0.95;;;;;;;12.08;100.00;101065.78;5250264;28;20439;-66
2022/11/01 06:52:55;;;;;;;6.45;1.00;;;;;;;12.03;100.00;101075.16;5244115;28;20495;-66
2022/11/01 06:55:27;;;;;;;6.78;1.60;;;;;;;12.01;99.80;101083.28;5245136;28;20033;-66
2022/11/01 06:58:00;;;;;;;7.53;1.20;;;;;;;11.99;100.00;101084.38;5242507;28;20059;-66
2022/11/01 07:00:31;;;;;;;8.15;1.30;;;;;;;11.97;100.00;101076.47;5242100;28;20140;-65
2022/11/01 07:03:10;;;;;;;8.40;1.17;;;;;;;11.95;100.00;101078.44;5251625;28;20040;-65
2022/11/01 07:05:41;;;;;;;6.32;1.00;;;;;;;11.92;100.00;101092.88;5244878;28;20040;-66
2022/11/01 07:08:13;;;;;;;6.90;1.40;;;;;;;11.90;100.00;101092.13;5254403;28;20082;-66
2022/11/01 07:10:44;;;;;;;8.40;2.00;;;;;;;11.88;100.00;101104.75;5249157;28;20106;-66
2022/11/01 07:13:15;;;;;;;6.45;1.02;;;;;;;11.86;100.00;101105.84;5252648;28;20490;-66
2022/11/01 07:15:47;;;;;;;5.10;1.23;;;;;;;11.85;100.00;101117.50;5245977;28;20109;-66
2022/11/01 07:18:18;;;;;;;7.53;1.65;;;;;;;11.83;100.00;101119.44;5244563;28;20043;-67
2022/11/01 07:20:49;;;;;;;6.32;1.65;;;;;;;11.81;100.00;101124.06;5244710;28;20499;-66
2022/11/01 07:23:20;;;;;;;6.43;1.10;;;;;;;11.80;100.00;101133.06;5246332;28;20124;-66
2022/11/01 07:25:52;;;;;;;10.32;1.27;;;;;;;11.76;100.00;101135.13;5246941;28;20028;-66
2022/11/01 07:28:24;;;;;;;9.73;1.85;;;;;;;11.75;100.00;101142.28;5246868;28;20029;-66
2022/11/01 07:30:56;;;;;;;7.28;1.15;;;;;;;11.74;100.00;101145.91;5247895;28;20414;-66
2022/11/01 07:33:27;;;;;;;8.82;1.20;;;;;;;11.75;100.00;101152.09;5248094;28;20021;-66
2022/11/01 07:36:00;;;;;;;11.57;2.35;;;;;;;11.72;100.00;101163.06;5242478;28;20127;-66
2022/11/01 07:38:31;;;;;;;8.35;1.70;;;;;;;11.71;100.00;101158.66;5242253;28;20052;-67
2022/11/01 07:41:04;;;;;;;6.78;1.73;;;;;;;11.73;100.00;101152.22;5248597;28;20440;-66
2022/11/01 07:43:37;;;;;;;5.93;1.38;;;;;;;11.71;100.00;101148.81;5246056;28;20037;-66
2022/11/01 07:46:08;;;;;;;9.73;1.90;;;;;;;11.72;100.00;101163.91;5252303;28;20399;-66
2022/11/01 07:48:39;;;;;;;12.27;1.70;;;;;;;11.71;100.00;101159.50;5250220;28;20017;-66
2022/11/01 07:51:11;;;;;;;7.35;1.40;;;;;;;11.70;100.00;101165.84;5254042;28;20116;-66
2022/11/01 07:53:42;;;;;;;9.18;2.30;;;;;;;11.70;100.00;101176.53;5245045;28;20055;-66
2022/11/01 07:56:13;;;;;;;8.18;1.75;;;;;;;11.75;100.00;101168.16;5245597;28;20031;-66
2022/11/01 07:58:45;;;;;;;8.43;1.83;;;;;;;11.70;99.78;101168.50;5253596;28;20028;-66
2022/11/01 08:01:16;;;;;;;14.23;1.98;;;;;;;11.76;98.74;101177.88;5249285;28;20052;-66
2022/11/01 08:03:48;;;;;;;9.70;1.60;;;;;;;11.75;98.14;101185.06;5251632;28;20123;-66
2022/11/01 08:06:19;;;;;;;10.77;1.73;;;;;;;11.78;99.63;101182.13;5247890;28;20025;-66
2022/11/01 08:08:50;;;;;;;11.43;1.70;;;;;;;11.78;99.59;101200.84;5250994;28;20786;-66
2022/11/01 08:11:21;;;;;;;10.75;1.55;;;;;;;11.78;100.00;101210.69;5252756;28;20414;-65
2022/11/01 08:13:53;;;;;;;11.57;1.90;;;;;;;11.77;100.00;101204.50;5255347;28;20394;-66
2022/11/01 08:16:24;;;;;;;10.02;2.30;;;;;;;11.78;99.29;101205.34;5251165;28;20422;-66
2022/11/01 08:18:55;;;;;;;7.63;1.55;;;;;;;11.84;99.21;101204.88;5244736;28;20199;-66
2022/11/01 08:21:27;;;;;;;7.47;1.58;;;;;;;11.79;99.64;101204.38;5251953;28;20033;-65
2022/11/01 08:23:58;;;;;;;11.80;1.90;;;;;;;11.81;100.00;101213.13;5254641;28;20043;-65
2022/11/01 08:26:29;;;;;;;11.35;1.95;;;;;;;11.80;99.89;101199.91;5256294;28;20021;-65
2022/11/01 08:29:00;;;;;;;14.48;2.60;;;;;;;11.81;99.00;101214.94;5255760;28;20090;-65
2022/11/01 08:31:32;;;;;;;10.32;1.85;;;;;;;11.81;99.60;101218.47;5257971;28;20108;-66
2022/11/01 08:34:03;;;;;;;11.02;1.83;;;;;;;11.83;100.00;101218.34;5255247;28;20525;-65
2022/11/01 08:36:34;;;;;;;9.35;2.08;;;;;;;11.85;99.00;101221.75;5257697;28;20037;-65
2022/11/01 08:39:05;;;;;;;11.15;1.98;;;;;;;11.85;98.73;101224.44;5255364;28;20033;-66
2022/11/01 08:41:37;;;;;;;9.07;1.90;;;;;;;11.88;98.51;101229.56;5258457;28;20025;-65
2022/11/01 08:44:08;;;;;;;9.27;1.80;;;;;;;11.92;97.36;101234.59;5253338;28;20025;-65
2022/11/01 08:46:41;;;;;;;13.43;2.67;;;;;;;11.94;99.62;101229.13;5256517;28;20028;-66
2022/11/01 08:49:13;;;;;;;7.85;1.85;;;;;;;11.93;98.45;101225.59;5255509;28;20050;-65
2022/11/01 08:51:44;;;;;;;7.47;1.85;;;;;;;11.94;98.33;101224.63;5258813;28;20037;-65
2022/11/01 08:54:15;;;;;;;11.15;2.50;;;;;;;11.99;98.33;101231.47;5256430;28;20182;-66
2022/11/01 08:56:47;;;;;;;9.60;1.85;;;;;;;12.10;96.99;101226.13;5257892;28;20052;-65
2022/11/01 08:59:19;;;;;;;8.15;1.75;;;;;;;12.08;96.04;101241.44;5258243;28;20032;-65
2022/11/01 09:01:50;;;;;;;14.88;2.35;;;;;;;12.10;97.86;101236.81;5259032;28;20440;-65
2022/11/01 09:04:21;;;;;;;11.25;2.15;;;;;;;12.11;98.20;101244.72;5250355;28;20025;-65
2022/11/01 09:06:52;;;;;;;11.00;2.22;;;;;;;12.11;98.12;101247.41;5257453;28;20101;-65
2022/11/01 09:09:24;;;;;;;12.65;1.92;;;;;;;12.17;97.16;101256.78;5256957;28;20360;-65
2022/11/01 09:11:55;;;;;;;12.05;2.47;;;;;;;12.21;97.09;101244.88;5257785;28;20403;-66
2022/11/01 09:14:26;;;;;;;10.38;1.83;;;;;;;12.24;97.57;101244.66;5256573;28;20521;-65
2022/11/01 09:16:58;;;;;;;9.38;1.73;;;;;;;12.26;98.93;101247.22;5256625;28;20447;-66
2022/11/01 09:19:29;;;;;;;15.20;2.20;;;;;;;12.29;96.77;101252.31;5256436;28;20028;-66
2022/11/01 09:22:01;;;;;;;11.90;2.42;;;;;;;12.32;97.66;101266.31;5258241;28;20447;-66
2022/11/01 09:24:32;;;;;;;10.65;2.10;;;;;;;12.35;96.90;101262.56;5257147;28;20064;-66
2022/11/01 09:27:05;;;;;;;11.00;1.65;;;;;;;12.45;96.32;101268.06;5255220;28;20079;-66
2022/11/01 09:29:37;;;;;;;9.15;1.90;;;;;;;12.47;95.58;101266.94;5252664;28;20376;-66
2022/11/01 09:32:08;;;;;;;12.18;2.47;;;;;;;12.50;94.80;101263.16;5252473;28;20033;-66
2022/11/01 09:34:39;;;;;;;10.05;2.25;;;;;;;12.55;96.50;101271.72;5257174;28;20129;-66
2022/11/01 09:37:11;;;;;;;11.05;2.30;;;;;;;12.56;96.69;101281.44;5250639;28;20478;-66
2022/11/01 09:39:42;;;;;;;10.13;2.13;;;;;;;12.62;95.84;101285.44;5248710;28;20024;-66
2022/11/01 09:42:27;;;;;;;11.32;2.28;;;;;;;12.63;94.57;101293.38;5255145;28;20029;-66
2022/11/01 09:45:05;;;;;;;10.55;1.63;;;;;;;12.65;95.71;101301.28;5253394;28;20033;-66
2022/11/01 09:47:36;;;;;;;14.27;2.08;;;;;;;12.68;95.88;101306.41;5255638;28;20406;-66
2022/11/01 09:50:24;;;;;;;9.35;1.98;;;;;;;12.72;95.77;101307.88;5255675;28;20024;-66
2022/11/01 09:52:56;;;;;;;16.95;2.55;;;;;;;12.78;93.40;101311.91;5257452;28;20488;-67
2022/11/01 09:55:39;;;;;;;11.40;2.00;;;;;;;12.78;95.57;101312.75;5255236;28;20025;-66
2022/11/01 09:58:38;;;;;;;11.52;2.20;;;;;;;12.82;96.48;101313.34;5247469;28;20127;-66
2022/11/01 10:01:17;;;;;;;10.93;2.13;;;;;;;12.84;95.27;101322.13;5249884;28;20041;-66
2022/11/01 10:04:01;;;;;;;12.80;1.95;;;;;;;12.84;95.79;101316.75;5246345;28;20031;-66
2022/11/01 10:06:41;;;;;;;11.05;2.30;;;;;;;12.89;94.97;101325.31;5251808;28;20487;-66
2022/11/01 10:09:32;;;;;;;13.13;2.15;;;;;;;12.90;94.72;101332.34;5252252;28;20063;-66
2022/11/01 10:12:13;;;;;;;10.85;1.88;;;;;;;12.94;95.43;101339.16;5247679;28;20086;-66
2022/11/01 10:14:56;;;;;;;10.98;1.77;;;;;;;12.92;96.54;101338.44;5249656;28;21075;-66
2022/11/01 10:17:49;;;;;;;10.05;1.75;;;;;;;12.93;97.23;101338.31;5247463;28;20036;-66
2022/11/01 10:20:25;;;;;;;13.38;2.33;;;;;;;12.96;94.86;101350.59;5252430;28;20021;-66
2022/11/01 10:22:57;;;;;;;9.32;1.88;;;;;;;12.94;95.21;101344.50;5254650;28;20395;-66
2022/11/01 10:25:32;;;;;;;15.85;2.38;;;;;;;12.95;94.53;101344.41;5249509;28;20463;-67
2022/11/01 10:28:33;;;;;;;10.88;1.83;;;;;;;12.99;95.43;101347.69;5254556;28;20029;-66
2022/11/01 10:31:13;;;;;;;10.52;1.88;;;;;;;13.00;95.44;101344.06;5255498;28;20045;-66
2022/11/01 10:33:55;;;;;;;11.23;1.92;;;;;;;13.04;95.84;101358.91;5247229;28;20105;-66
2022/11/01 10:36:39;;;;;;;11.57;2.63;;;;;;;13.09;94.84;101359.38;5245084;28;20372;-66
2022/11/01 10:39:16;;;;;;;11.80;2.42;;;;;;;13.17;93.98;101363.28;5252493;28;20497;-66
2022/11/01 10:41:51;;;;;;;8.43;1.77;;;;;;;13.19;94.14;101358.66;5248605;28;20098;-66
2022/11/01 10:44:30;;;;;;;15.02;2.08;;;;;;;13.22;94.01;101353.06;5251336;28;20119;-66
2022/11/01 10:47:05;;;;;;;10.63;1.95;;;;;;;13.26;94.04;101346.47;5247857;28;20042;-66
2022/11/01 10:49:44;;;;;;;13.45;2.25;;;;;;;13.28;93.79;101347.22;5251428;28;20028;-66
2022/11/01 10:52:22;;;;;;;11.75;1.95;;;;;;;13.33;95.74;101347.75;5243852;28;20804;-66
2022/11/01 10:54:56;;;;;;;12.18;1.73;;;;;;;13.35;93.54;101348.47;5252982;28;20036;-66
2022/11/01 10:57:34;;;;;;;11.45;1.85;;;;;;;13.38;93.67;101350.03;5251960;28;20047;-66
2022/11/01 11:00:13;;;;;;;15.05;2.65;;;;;;;13.42;94.25;101349.66;5252043;28;20780;-66
2022/11/01 11:02:49;;;;;;;15.23;2.35;;;;;;;13.42;93.99;101344.28;5253578;28;20029;-66
2022/11/01 11:05:23;;;;;;;16.10;2.15;;;;;;;13.57;91.92;101338.69;5250440;28;20032;-66
2022/11/01 11:07:56;;;;;;;10.63;1.73;;;;;;;13.57;92.01;101333.31;5255969;28;20059;-66
2022/11/01 11:10:28;;;;;;;11.10;2.55;;;;;;;13.62;91.89;101344.53;5245866;28;20356;-66
2022/11/01 11:13:05;;;;;;;7.72;1.83;;;;;;;13.64;92.47;101339.91;5253674;28;20032;-66
2022/11/01 11:16:01;;;;;;;10.07;1.95;;;;;;;13.72;93.86;101334.75;5250446;28;20066;-66
2022/11/01 11:18:42;;;;;;;8.57;1.80;;;;;;;13.68;93.49;101330.63;5255012;28;20507;-66
2022/11/01 11:21:13;;;;;;;14.70;2.67;;;;;;;13.68;93.48;101344.03;5253462;28;20063;-66
2022/11/01 11:23:45;;;;;;;10.95;1.73;;;;;;;13.70;94.08;101332.19;5255851;28;20024;-66
2022/11/01 11:26:18;;;;;;;8.85;1.63;;;;;;;13.73;93.47;101333.78;5250903;28;20032;-66
2022/11/01 11:28:53;;;;;;;9.30;2.10;;;;;;;13.74;92.57;101343.50;5250115;28;20133;-66
2022/11/01 11:31:30;;;;;;;9.05;2.30;;;;;;;13.78;91.66;101336.91;5251155;28;20025;-66
2022/11/01 11:34:27;;;;;;;9.13;1.70;;;;;;;13.87;92.46;101338.84;5253134;28;20029;-66
2022/11/01 11:37:00;;;;;;;10.38;1.75;;;;;;;13.90;92.88;101338.59;5253447;28;20040;-66
2022/11/01 11:39:36;;;;;;;6.88;1.52;;;;;;;13.93;92.04;101334.81;5244285;28;20027;-66
2022/11/01 11:42:15;;;;;;;11.35;1.90;;;;;;;14.04;92.12;101336.59;5252793;28;20025;-66
2022/11/01 11:44:48;;;;;;;9.48;1.65;;;;;;;14.04;91.74;101340.13;5251552;28;20389;-66
2022/11/01 11:47:25;;;;;;;8.27;1.77;;;;;;;14.09;91.56;101342.41;5252600;28;20045;-66
2022/11/01 11:49:59;;;;;;;10.43;1.80;;;;;;;14.09;92.58;101339.75;5248886;28;20526;-66
2022/11/01 11:52:35;;;;;;;6.68;1.80;;;;;;;14.13;93.02;101346.53;5243408;28;20055;-66
2022/11/01 11:55:34;;;;;;;9.45;2.08;;;;;;;14.15;92.54;101347.28;5249083;28;20112;-66
2022/11/01 11:58:17;;;;;;;11.40;1.85;;;;;;;14.16;91.69;101342.78;5257872;28;20035;-66
2022/11/01 12:00:52;;;;;;;9.75;2.05;;;;;;;14.20;90.83;101350.44;5257082;28;20107;-66
2022/11/01 12:03:24;;;;;;;7.70;1.70;;;;;;;14.23;91.71;101352.00;5256752;28;20033;-69